MRU weather

Sir Seewoosagur Ramgoolam International Airport
Port Louis, Grand Port, Mauritius

Public forecast

Using degrees Celsius for public forecast. Weather courtesy of forecast.io.

Current aviation weather report (METAR) for Sir Seewoosagur Ramgoolam International Airport

Retrieved 2020/03/29 18:00 UTC (33 minutes ago):

FIMP 291800Z 08008KT 9999 VCSH FEW009 BKN015 27/26 Q1011

Aviation forecast (TAF) for Sir Seewoosagur Ramgoolam International Airport

Retrieved 2020/03/29 18:00 UTC (33 minutes ago):

TAF FIMP 291700Z 2918/3100 08008KT 9999 SCT016 TEMPO 2918/3018 7000 -SHRA FEW010 SCT015 BKN050 PROB30 TEMPO 2920/3002 5000 SHRA FEW007 FEW013TCU BKN013